createdAt,value
2019-06-26T00:00:39.290Z,22.40
2019-06-26T00:03:06.718Z,22.40
2019-06-26T00:05:34.138Z,22.40
2019-06-26T00:08:03.651Z,22.20
2019-06-26T00:10:31.201Z,22.20
2019-06-26T00:12:58.771Z,22.20
2019-06-26T00:15:26.584Z,22.10
2019-06-26T00:17:54.309Z,22.10
2019-06-26T00:20:21.871Z,22.00
2019-06-26T00:22:49.385Z,22.00
2019-06-26T00:25:16.913Z,22.00
2019-06-26T00:27:44.324Z,22.00
2019-06-26T00:30:11.873Z,21.90
2019-06-26T00:32:39.388Z,21.80
2019-06-26T00:35:06.966Z,21.80
2019-06-26T00:37:34.474Z,21.80
2019-06-26T00:40:01.999Z,21.60
2019-06-26T00:42:29.526Z,21.60
2019-06-26T00:44:57.053Z,21.50
2019-06-26T00:47:28.718Z,21.50
2019-06-26T00:49:56.237Z,21.50
2019-06-26T00:52:24.154Z,21.40
2019-06-26T00:54:51.665Z,21.30
2019-06-26T00:57:19.222Z,21.30
2019-06-26T00:59:46.711Z,21.20
2019-06-26T01:02:14.216Z,21.20
2019-06-26T01:04:44.540Z,21.30
2019-06-26T01:07:12.126Z,21.30
2019-06-26T01:09:39.625Z,21.20
2019-06-26T01:12:07.157Z,21.20
2019-06-26T01:14:34.705Z,21.00
2019-06-26T01:17:03.258Z,21.00
2019-06-26T01:19:30.786Z,20.90
2019-06-26T01:21:58.198Z,20.90
2019-06-26T01:24:25.688Z,20.80
2019-06-26T01:26:57.672Z,20.80
2019-06-26T01:29:25.100Z,20.60
2019-06-26T01:31:52.547Z,20.60
2019-06-26T01:34:20.095Z,20.50
2019-06-26T01:36:49.722Z,20.50
2019-06-26T01:39:17.238Z,20.50
2019-06-26T01:41:44.776Z,20.50
2019-06-26T01:44:15.411Z,20.60
2019-06-26T01:46:43.617Z,20.60
2019-06-26T01:49:11.159Z,20.60
2019-06-26T01:51:38.709Z,20.60
2019-06-26T01:54:06.248Z,20.60
2019-06-26T01:56:35.917Z,20.40
2019-06-26T01:59:03.483Z,20.40
2019-06-26T02:01:31.024Z,20.40
2019-06-26T02:03:58.559Z,20.40
2019-06-26T02:06:26.081Z,20.40
2019-06-26T02:08:53.730Z,20.50
2019-06-26T02:11:21.287Z,20.50
2019-06-26T02:13:48.811Z,20.50
2019-06-26T02:16:16.334Z,20.60
2019-06-26T02:18:48.377Z,20.60
2019-06-26T02:21:16.199Z,20.50
2019-06-26T02:23:43.780Z,20.50
2019-06-26T02:26:11.725Z,20.60
2019-06-26T02:28:39.445Z,20.60
2019-06-26T02:31:06.952Z,20.60
2019-06-26T02:33:34.538Z,20.40
2019-06-26T02:36:02.356Z,20.30
2019-06-26T02:38:29.899Z,20.30
2019-06-26T02:40:57.341Z,20.30
2019-06-26T02:43:24.818Z,20.00
2019-06-26T02:45:52.469Z,20.10
2019-06-26T02:48:21.207Z,20.00
2019-06-26T02:50:51.227Z,20.10
2019-06-26T02:53:18.775Z,19.90
2019-06-26T02:55:46.301Z,19.80
2019-06-26T02:58:13.796Z,19.80
2019-06-26T03:00:41.305Z,19.70
2019-06-26T03:03:09.245Z,19.70
2019-06-26T03:05:36.782Z,19.80
2019-06-26T03:08:12.515Z,19.80
2019-06-26T03:10:39.948Z,19.90
2019-06-26T03:13:07.462Z,20.10
2019-06-26T03:15:35.013Z,20.00
2019-06-26T03:18:04.014Z,20.10
2019-06-26T03:20:35.505Z,20.10
2019-06-26T03:23:05.098Z,20.10
2019-06-26T03:25:34.618Z,20.20
2019-06-26T03:28:14.027Z,20.10
2019-06-26T03:30:41.504Z,20.20
2019-06-26T03:33:09.015Z,20.20
2019-06-26T03:35:36.571Z,20.20
2019-06-26T03:38:06.598Z,20.30
2019-06-26T03:40:34.093Z,20.20
2019-06-26T03:43:04.031Z,20.00
2019-06-26T03:45:31.623Z,19.90
2019-06-26T03:47:59.181Z,19.80
2019-06-26T03:50:29.615Z,19.70
2019-06-26T03:52:58.185Z,19.60
2019-06-26T03:55:25.731Z,19.40
2019-06-26T03:57:57.752Z,19.40
2019-06-26T04:00:41.270Z,19.40
2019-06-26T04:03:28.151Z,19.40
2019-06-26T04:05:58.317Z,19.50
2019-06-26T04:08:28.138Z,19.60
2019-06-26T04:10:58.669Z,19.70
2019-06-26T04:13:26.234Z,19.70
2019-06-26T04:15:56.140Z,19.60
2019-06-26T04:18:32.736Z,19.40
2019-06-26T04:21:00.263Z,19.40
2019-06-26T04:23:27.864Z,19.40
2019-06-26T04:25:55.469Z,19.50
2019-06-26T04:28:24.402Z,19.50
2019-06-26T04:30:51.793Z,19.40
2019-06-26T04:33:19.254Z,19.50
2019-06-26T04:35:46.754Z,19.60
2019-06-26T04:38:20.224Z,19.60
2019-06-26T04:40:47.752Z,19.50
2019-06-26T04:43:15.191Z,19.20
2019-06-26T04:45:57.137Z,19.00
2019-06-26T04:48:11.906Z,19.00
2019-06-26T04:50:39.835Z,19.10
2019-06-26T04:53:07.516Z,19.10
2019-06-26T04:55:34.943Z,19.10
2019-06-26T04:58:02.448Z,19.20
2019-06-26T05:00:29.960Z,19.20
2019-06-26T05:02:58.986Z,19.30
2019-06-26T05:05:38.913Z,19.20
2019-06-26T05:07:55.805Z,19.20
2019-06-26T05:10:23.267Z,19.30
2019-06-26T05:12:50.754Z,19.40
2019-06-26T05:15:19.064Z,19.50
2019-06-26T05:17:46.613Z,19.40
2019-06-26T05:20:14.116Z,19.50
2019-06-26T05:22:41.646Z,19.50
2019-06-26T05:25:09.092Z,19.60
2019-06-26T05:27:36.624Z,19.70
2019-06-26T05:30:05.174Z,19.70
2019-06-26T05:32:32.737Z,19.60
2019-06-26T05:35:00.221Z,19.50
2019-06-26T05:37:27.748Z,19.60
2019-06-26T05:39:55.322Z,19.70
2019-06-26T05:42:22.819Z,19.70
2019-06-26T05:44:50.370Z,19.60
2019-06-26T05:47:17.889Z,19.50
2019-06-26T05:49:45.412Z,19.60
2019-06-26T05:52:16.493Z,19.80
2019-06-26T05:54:42.454Z,19.70
2019-06-26T05:57:09.950Z,19.60
2019-06-26T05:59:37.362Z,19.60
2019-06-26T06:02:04.776Z,19.70
2019-06-26T06:04:32.309Z,19.80
2019-06-26T06:07:05.472Z,19.70
2019-06-26T06:09:33.299Z,19.60
2019-06-26T06:12:00.977Z,19.60
2019-06-26T06:14:30.382Z,19.40
2019-06-26T06:17:13.096Z,19.40
2019-06-26T06:19:40.659Z,19.40
2019-06-26T06:22:08.284Z,19.40
2019-06-26T06:24:35.913Z,19.60
2019-06-26T06:27:11.287Z,19.50
2019-06-26T06:29:41.393Z,19.40
2019-06-26T06:32:09.001Z,19.50
2019-06-26T06:34:36.517Z,19.30
2019-06-26T06:37:20.538Z,19.30
2019-06-26T06:39:48.119Z,19.50
2019-06-26T06:42:15.846Z,19.60
2019-06-26T06:44:43.429Z,19.60
2019-06-26T06:47:14.430Z,19.60
2019-06-26T06:49:41.955Z,19.30
2019-06-26T06:52:10.494Z,19.40
2019-06-26T06:54:38.071Z,19.50
2019-06-26T06:57:06.379Z,19.60
2019-06-26T06:59:33.921Z,19.60
2019-06-26T07:02:01.825Z,19.60
2019-06-26T07:04:29.531Z,19.60
2019-06-26T07:06:58.811Z,19.60
2019-06-26T07:09:26.561Z,19.80
2019-06-26T07:11:54.101Z,19.90
2019-06-26T07:14:21.663Z,20.00
2019-06-26T07:16:53.708Z,20.00
2019-06-26T07:19:22.424Z,20.00
2019-06-26T07:21:50.013Z,20.00
2019-06-26T07:24:19.142Z,19.90
2019-06-26T07:26:56.239Z,20.00
2019-06-26T07:29:24.843Z,20.20
2019-06-26T07:31:52.513Z,20.10
2019-06-26T07:34:20.147Z,20.10
2019-06-26T07:36:48.827Z,20.00
2019-06-26T07:39:16.923Z,19.90
2019-06-26T07:41:44.524Z,20.00
2019-06-26T07:44:13.902Z,20.10
2019-06-26T07:46:41.443Z,20.40
2019-06-26T07:49:11.704Z,20.30
2019-06-26T07:51:39.280Z,20.30
2019-06-26T07:54:06.982Z,20.20
2019-06-26T07:56:41.321Z,20.00
2019-06-26T07:59:08.842Z,20.30
2019-06-26T08:01:39.183Z,20.30
2019-06-26T08:04:06.771Z,20.20
2019-06-26T08:06:34.418Z,20.20
2019-06-26T08:09:02.803Z,20.40
2019-06-26T08:11:30.432Z,20.40
2019-06-26T08:13:57.990Z,20.50
2019-06-26T08:16:25.610Z,20.70
2019-06-26T08:18:53.172Z,20.70
2019-06-26T08:21:21.754Z,20.50
2019-06-26T08:23:49.313Z,20.70
2019-06-26T08:26:16.973Z,20.80
2019-06-26T08:28:46.346Z,20.90
2019-06-26T08:31:13.822Z,20.90
2019-06-26T08:33:41.444Z,20.70
2019-06-26T08:36:09.047Z,20.90
2019-06-26T08:38:38.733Z,21.20
2019-06-26T08:41:06.324Z,21.30
2019-06-26T08:43:33.918Z,21.40
2019-06-26T08:46:01.878Z,21.50
2019-06-26T08:48:39.365Z,21.50
2019-06-26T08:51:03.918Z,21.50
2019-06-26T08:53:34.430Z,21.50
2019-06-26T08:56:02.099Z,21.50
2019-06-26T08:58:38.279Z,21.20
2019-06-26T09:01:05.936Z,21.20
2019-06-26T09:03:35.665Z,21.20
2019-06-26T09:06:07.092Z,21.20
2019-06-26T09:09:59.828Z,21.00
2019-06-26T09:11:51.527Z,21.20
2019-06-26T09:14:19.111Z,21.40
2019-06-26T09:16:51.076Z,21.60
2019-06-26T09:19:21.168Z,21.70
2019-06-26T09:21:48.817Z,21.60
2019-06-26T09:24:16.464Z,21.70
2019-06-26T09:26:56.191Z,21.60
2019-06-26T09:29:24.171Z,21.60
2019-06-26T09:31:51.725Z,21.70
2019-06-26T09:34:19.351Z,21.90
2019-06-26T09:36:48.184Z,22.00
2019-06-26T09:39:15.709Z,22.10
2019-06-26T09:41:43.205Z,22.20
2019-06-26T09:44:11.024Z,22.20
2019-06-26T09:46:39.798Z,22.40
2019-06-26T09:49:07.343Z,22.70
2019-06-26T09:51:34.975Z,22.80
2019-06-26T09:54:02.550Z,22.90
2019-06-26T09:56:30.089Z,22.90
2019-06-26T09:58:57.638Z,22.90
2019-06-26T10:01:25.443Z,23.10
2019-06-26T10:03:53.009Z,23.40
2019-06-26T10:06:30.218Z,23.30
2019-06-26T10:08:57.669Z,23.60
2019-06-26T10:11:25.428Z,23.60
2019-06-26T10:13:52.955Z,23.80
2019-06-26T10:16:21.612Z,23.60
2019-06-26T10:19:05.588Z,23.30
2019-06-26T10:21:23.693Z,23.40
2019-06-26T10:23:51.229Z,23.70
2019-06-26T10:26:46.597Z,23.60
2019-06-26T10:30:11.943Z,23.70
2019-06-26T10:32:42.443Z,23.90
2019-06-26T10:35:10.277Z,24.50
2019-06-26T10:37:58.994Z,24.40
2019-06-26T10:40:26.553Z,24.50
2019-06-26T10:42:54.130Z,24.70
2019-06-26T10:45:21.902Z,24.80
2019-06-26T10:47:51.127Z,24.90
2019-06-26T10:50:20.509Z,25.30
2019-06-26T10:52:48.051Z,25.30
2019-06-26T10:55:15.792Z,25.40
2019-06-26T10:57:46.377Z,25.20
2019-06-26T11:00:14.232Z,25.40
2019-06-26T11:02:41.818Z,25.60
2019-06-26T11:05:10.476Z,25.70
2019-06-26T11:07:38.071Z,25.50
2019-06-26T11:10:06.268Z,25.40
2019-06-26T11:12:33.805Z,25.00
2019-06-26T11:15:02.041Z,25.00
2019-06-26T11:17:39.812Z,24.70
2019-06-26T11:20:08.647Z,25.00
2019-06-26T11:22:36.250Z,25.20
2019-06-26T11:25:04.188Z,24.90
2019-06-26T11:27:37.332Z,24.80
2019-06-26T11:30:07.031Z,25.00
2019-06-26T11:32:34.661Z,25.20
2019-06-26T11:35:04.855Z,25.00
2019-06-26T11:37:51.873Z,24.80
2019-06-26T11:40:20.269Z,25.00
2019-06-26T11:42:47.926Z,25.00
2019-06-26T11:45:15.804Z,25.20
2019-06-26T11:47:47.442Z,25.30
2019-06-26T11:50:17.183Z,25.70
2019-06-26T11:52:44.928Z,25.90
2019-06-26T11:55:13.278Z,25.60
2019-06-26T11:57:40.770Z,25.50
2019-06-26T12:00:09.105Z,25.50
2019-06-26T12:02:36.699Z,25.40
2019-06-26T12:05:05.058Z,25.70
2019-06-26T12:07:37.282Z,26.00
2019-06-26T12:10:05.510Z,26.00
2019-06-26T12:12:33.100Z,26.10
2019-06-26T12:15:00.658Z,25.90
2019-06-26T12:17:28.531Z,25.80
2019-06-26T12:19:56.147Z,25.90
2019-06-26T12:22:23.638Z,25.60
2019-06-26T12:24:51.188Z,25.70
2019-06-26T12:27:18.610Z,26.10
2019-06-26T12:29:48.502Z,26.00
2019-06-26T12:32:16.133Z,25.70
2019-06-26T12:34:45.212Z,26.00
2019-06-26T12:37:13.105Z,26.20
2019-06-26T12:39:40.718Z,25.90
2019-06-26T12:42:08.248Z,25.90
2019-06-26T12:44:35.931Z,26.00
2019-06-26T12:47:03.474Z,26.00
2019-06-26T12:49:31.051Z,26.30
2019-06-26T12:51:58.580Z,26.40
2019-06-26T12:54:26.083Z,26.40
2019-06-26T12:56:57.930Z,26.40
2019-06-26T12:59:25.440Z,26.00
2019-06-26T13:01:53.003Z,25.90
2019-06-26T13:04:20.439Z,26.10
2019-06-26T13:06:47.854Z,25.90
2019-06-26T13:09:15.556Z,26.10
2019-06-26T13:11:43.094Z,26.00
2019-06-26T13:14:10.602Z,26.10
2019-06-26T13:16:40.449Z,26.10
2019-06-26T13:19:07.930Z,26.30
2019-06-26T13:21:36.002Z,26.40
2019-06-26T13:24:03.932Z,26.50
2019-06-26T13:26:35.204Z,26.50
2019-06-26T13:29:02.920Z,26.60
2019-06-26T13:31:30.454Z,26.70
2019-06-26T13:33:57.877Z,26.80
2019-06-26T13:36:26.406Z,26.80
2019-06-26T13:38:54.018Z,26.90
2019-06-26T13:41:21.584Z,26.80
2019-06-26T13:43:49.082Z,27.10
2019-06-26T13:46:19.638Z,27.40
2019-06-26T13:48:47.162Z,27.70
2019-06-26T13:51:15.080Z,27.70
2019-06-26T13:53:42.773Z,27.80
2019-06-26T13:56:10.301Z,27.80
2019-06-26T13:58:37.760Z,27.70
2019-06-26T14:01:05.313Z,27.90
2019-06-26T14:03:32.868Z,27.70
2019-06-26T14:06:00.759Z,28.00
2019-06-26T14:08:32.891Z,27.90
2019-06-26T14:11:00.598Z,28.10
2019-06-26T14:13:28.110Z,27.90
2019-06-26T14:15:55.655Z,28.10
2019-06-26T14:18:30.322Z,28.20
2019-06-26T14:20:56.736Z,28.00
2019-06-26T14:23:24.311Z,28.00
2019-06-26T14:25:51.838Z,28.10
2019-06-26T14:28:21.513Z,28.20
2019-06-26T14:30:49.252Z,28.30
2019-06-26T14:33:16.887Z,27.90
2019-06-26T14:35:44.475Z,27.80
2019-06-26T14:38:12.194Z,27.80
2019-06-26T14:40:39.705Z,28.20
2019-06-26T14:43:07.256Z,28.40
2019-06-26T14:45:36.279Z,28.50
2019-06-26T14:48:18.053Z,28.30
2019-06-26T14:50:47.115Z,28.30
2019-06-26T14:53:16.585Z,28.40
2019-06-26T14:55:44.308Z,28.40
2019-06-26T14:58:20.329Z,28.70
2019-06-26T15:00:52.568Z,28.50
2019-06-26T15:03:20.601Z,28.50
2019-06-26T15:05:50.174Z,28.50
2019-06-26T15:08:25.016Z,28.40
2019-06-26T15:10:52.592Z,28.20
2019-06-26T15:13:20.107Z,28.10
2019-06-26T15:15:47.840Z,27.90
2019-06-26T15:18:28.665Z,28.00
2019-06-26T15:20:56.253Z,28.00
2019-06-26T15:23:23.753Z,28.00
2019-06-26T15:25:51.375Z,28.00
2019-06-26T15:28:18.859Z,28.10
2019-06-26T15:30:46.358Z,27.80
2019-06-26T15:33:16.582Z,27.90
2019-06-26T15:35:44.141Z,28.00
2019-06-26T15:38:27.074Z,28.20
2019-06-26T15:40:55.023Z,28.00
2019-06-26T15:43:22.583Z,27.80
2019-06-26T15:45:50.305Z,27.90
2019-06-26T15:48:20.101Z,28.10
2019-06-26T15:50:47.685Z,28.20
2019-06-26T15:53:15.394Z,28.10
2019-06-26T15:55:42.961Z,28.10
2019-06-26T15:58:13.600Z,28.10
2019-06-26T16:00:41.148Z,28.10
2019-06-26T16:03:08.981Z,28.10
2019-06-26T16:05:39.315Z,27.90
2019-06-26T16:08:08.234Z,27.90
2019-06-26T16:10:35.743Z,27.90
2019-06-26T16:13:04.679Z,27.80
2019-06-26T16:15:32.517Z,27.80
2019-06-26T16:18:20.475Z,28.00
2019-06-26T16:20:48.065Z,28.00
2019-06-26T16:23:17.319Z,28.00
2019-06-26T16:25:44.859Z,27.90
2019-06-26T16:28:19.331Z,27.50
2019-06-26T16:30:46.892Z,27.40
2019-06-26T16:33:14.487Z,27.40
2019-06-26T16:35:43.514Z,27.30
2019-06-26T16:38:11.080Z,27.10
2019-06-26T16:40:41.480Z,27.10
2019-06-26T16:43:09.069Z,27.10
2019-06-26T16:45:38.289Z,27.00
2019-06-26T16:48:06.794Z,27.00
2019-06-26T16:50:34.681Z,26.80
2019-06-26T16:53:02.288Z,26.70
2019-06-26T16:55:29.884Z,26.70
2019-06-26T16:57:57.470Z,26.40
2019-06-26T17:00:26.832Z,26.50
2019-06-26T17:02:56.411Z,26.50
2019-06-26T17:05:24.015Z,26.50
2019-06-26T17:07:51.603Z,26.40
2019-06-26T17:10:19.415Z,26.50
2019-06-26T17:12:46.957Z,26.50
2019-06-26T17:15:14.958Z,26.30
2019-06-26T17:17:45.643Z,26.40
2019-06-26T17:20:13.445Z,26.60
2019-06-26T17:22:44.069Z,26.20
2019-06-26T17:25:11.895Z,26.20
2019-06-26T17:27:45.099Z,26.20
2019-06-26T17:30:12.965Z,26.20
2019-06-26T17:32:40.573Z,26.00
2019-06-26T17:35:08.975Z,26.00
2019-06-26T17:37:38.559Z,26.10
2019-06-26T17:40:06.914Z,26.20
2019-06-26T17:42:34.879Z,26.30
2019-06-26T17:45:03.858Z,26.40
2019-06-26T17:47:36.748Z,26.30
2019-06-26T17:50:13.965Z,26.50
2019-06-26T17:52:41.689Z,26.50
2019-06-26T17:55:09.917Z,26.60
2019-06-26T17:57:37.578Z,26.80
2019-06-26T18:00:09.387Z,27.00
2019-06-26T18:02:37.093Z,26.80
2019-06-26T18:05:05.975Z,26.90
2019-06-26T18:07:38.635Z,27.20
2019-06-26T18:10:06.371Z,27.10
2019-06-26T18:12:33.918Z,27.20
2019-06-26T18:15:01.746Z,27.40
2019-06-26T18:17:36.532Z,27.60
2019-06-26T18:20:04.923Z,27.70
2019-06-26T18:22:32.547Z,27.70
2019-06-26T18:25:00.277Z,27.40
2019-06-26T18:27:32.469Z,27.10
2019-06-26T18:30:01.193Z,27.10
2019-06-26T18:32:29.343Z,26.90
2019-06-26T18:34:56.920Z,26.80
2019-06-26T18:37:24.837Z,26.70
2019-06-26T18:39:52.490Z,27.20
2019-06-26T18:42:20.306Z,26.80
2019-06-26T18:44:47.983Z,26.40
2019-06-26T18:47:18.694Z,26.10
2019-06-26T18:49:46.409Z,25.80
2019-06-26T18:52:14.062Z,25.50
2019-06-26T18:54:41.761Z,25.10
2019-06-26T18:57:49.723Z,24.80
2019-06-26T19:00:20.841Z,24.70
2019-06-26T19:02:48.464Z,24.50
2019-06-26T19:05:16.072Z,24.30
2019-06-26T19:07:53.084Z,24.30
2019-06-26T19:10:23.802Z,24.20
2019-06-26T19:12:51.471Z,24.00
2019-06-26T19:15:19.261Z,24.00
2019-06-26T19:17:55.002Z,23.90
2019-06-26T19:20:22.754Z,23.90
2019-06-26T19:22:50.314Z,23.90
2019-06-26T19:25:18.055Z,23.80
2019-06-26T19:27:45.667Z,23.70
2019-06-26T19:30:16.419Z,23.60
2019-06-26T19:32:44.306Z,23.50
2019-06-26T19:35:19.833Z,23.40
2019-06-26T19:37:55.442Z,23.40
2019-06-26T19:40:24.284Z,23.30
2019-06-26T19:42:52.332Z,23.30
2019-06-26T19:45:20.473Z,23.20
2019-06-26T19:47:49.919Z,23.10
2019-06-26T19:50:47.619Z,23.10
2019-06-26T19:53:23.045Z,23.00
2019-06-26T19:55:50.799Z,23.00
2019-06-26T19:58:35.916Z,23.00
2019-06-26T20:01:06.208Z,22.90
2019-06-26T20:03:33.833Z,22.80
2019-06-26T20:06:04.571Z,22.70
2019-06-26T20:08:51.649Z,22.70
2019-06-26T20:11:06.028Z,22.60
2019-06-26T20:13:34.691Z,22.60
2019-06-26T20:16:06.090Z,22.50
2019-06-26T20:18:35.935Z,22.40
2019-06-26T20:21:03.729Z,22.40
2019-06-26T20:23:31.450Z,22.30
2019-06-26T20:25:59.050Z,22.20
2019-06-26T20:28:46.094Z,22.10
2019-06-26T20:31:13.809Z,22.00
2019-06-26T20:33:42.764Z,21.90
2019-06-26T20:36:13.128Z,21.90
2019-06-26T20:38:41.048Z,21.90
2019-06-26T20:41:11.637Z,21.80
2019-06-26T20:43:39.409Z,21.70
2019-06-26T20:46:10.049Z,21.60
2019-06-26T20:48:43.646Z,21.50
2019-06-26T20:51:14.346Z,21.40
2019-06-26T20:53:44.629Z,21.30
2019-06-26T20:56:12.398Z,21.30
2019-06-26T20:58:40.205Z,21.20
2019-06-26T21:01:08.294Z,21.20
2019-06-26T21:03:35.964Z,21.10
2019-06-26T21:06:03.580Z,21.00
2019-06-26T21:08:36.048Z,21.00
2019-06-26T21:11:03.942Z,21.00
2019-06-26T21:13:31.623Z,20.90
2019-06-26T21:16:04.628Z,20.90
2019-06-26T21:18:32.210Z,20.90
2019-06-26T21:20:59.814Z,20.80
2019-06-26T21:23:27.631Z,20.70
2019-06-26T21:25:55.291Z,20.70
2019-06-26T21:28:25.283Z,20.60
2019-06-26T21:30:52.863Z,20.60
2019-06-26T21:33:20.489Z,20.50
2019-06-26T21:35:48.050Z,20.40
2019-06-26T21:38:18.843Z,20.40
2019-06-26T21:40:46.497Z,20.40
2019-06-26T21:43:30.679Z,20.40
2019-06-26T21:45:58.330Z,20.30
2019-06-26T21:48:27.891Z,20.30
2019-06-26T21:50:55.479Z,20.20
2019-06-26T21:53:25.455Z,20.10
2019-06-26T21:55:55.836Z,20.00
2019-06-26T21:58:23.490Z,20.00
2019-06-26T22:00:51.247Z,20.00
2019-06-26T22:03:20.211Z,19.90
2019-06-26T22:05:47.765Z,19.90
2019-06-26T22:08:23.212Z,19.80
2019-06-26T22:10:50.789Z,19.90
2019-06-26T22:13:18.305Z,19.80
2019-06-26T22:15:45.973Z,19.70
2019-06-26T22:18:14.594Z,19.60
2019-06-26T22:20:42.184Z,19.60
2019-06-26T22:23:09.804Z,19.60
2019-06-26T22:25:50.265Z,19.60
2019-06-26T22:28:06.716Z,19.50
2019-06-26T22:30:34.408Z,19.50
2019-06-26T22:33:02.506Z,19.50
2019-06-26T22:35:30.074Z,19.50
2019-06-26T22:37:59.882Z,19.40
2019-06-26T22:40:27.425Z,19.30
2019-06-26T22:42:55.064Z,19.20
2019-06-26T22:45:22.831Z,19.20
2019-06-26T22:47:50.417Z,19.10
2019-06-26T22:50:18.051Z,19.10
2019-06-26T22:52:45.729Z,19.10
2019-06-26T22:55:13.225Z,19.00
2019-06-26T22:57:42.951Z,19.00
2019-06-26T23:00:12.607Z,18.90
2019-06-26T23:02:40.151Z,18.80
2019-06-26T23:05:08.178Z,18.80
2019-06-26T23:07:37.905Z,18.80
2019-06-26T23:10:05.671Z,18.70
2019-06-26T23:12:33.195Z,18.70
2019-06-26T23:15:00.783Z,18.70
2019-06-26T23:17:32.679Z,18.60
2019-06-26T23:20:00.122Z,18.70
2019-06-26T23:22:27.690Z,18.60
2019-06-26T23:24:55.127Z,18.60
2019-06-26T23:27:22.829Z,18.50
2019-06-26T23:29:50.261Z,18.50
2019-06-26T23:32:18.183Z,18.40
2019-06-26T23:34:45.705Z,18.30
2019-06-26T23:37:13.415Z,18.30
2019-06-26T23:39:40.911Z,18.30
2019-06-26T23:42:11.223Z,18.30
2019-06-26T23:44:38.787Z,18.30
2019-06-26T23:47:06.379Z,18.20
2019-06-26T23:49:34.026Z,18.20
2019-06-26T23:52:01.688Z,18.20
2019-06-26T23:54:29.235Z,18.10
2019-06-26T23:56:56.755Z,18.20
2019-06-26T23:59:24.389Z,18.10
